KSPA/SPA METAR and TAF weather

Enter ICAO airport designator
Station Type Date Time Source
KSPA METAR 2022/11/30 16:35 UTC NOAA

KSPA 301635Z AUTO 24012G17KT 10SM OVC006 12/12 A2999 RMK AO2


Station Type Date Time Source
KSPA Decoded METAR 2022/11/30 16:35 UTC NOAA

Spartanburg Memorial, SC, United States (KSPA) 34-55N 081-57W
Nov 30, 2022 - 11:35 AM EST / 2022.11.30 1635 UTC
Wind: from the WSW (240 degrees) at 14 MPH (12 KT) gusting to 20 MPH (17 KT):0
Visibility: 10 mile(s):0
Sky conditions: overcast
Temperature: 53 F (12 C)
Dew Point: 53 F (12 C)
Relative Humidity: 100%
Pressure (altimeter): 29.99 in. Hg (1015 hPa)
ob: KSPA 301635Z AUTO 24012G17KT 10SM OVC006 12/12 A2999 RMK AO2
cycle: 16

Station Type Date Time Source
KSPA TAF UTC NOAA

Error!

Example: see airport list